createdAt,value
2023-02-12T00:00:04.829Z,9.40
2023-02-12T00:02:31.584Z,9.40
2023-02-12T00:04:58.455Z,9.40
2023-02-12T00:07:25.250Z,9.40
2023-02-12T00:09:51.959Z,9.40
2023-02-12T00:12:18.644Z,9.40
2023-02-12T00:14:45.348Z,9.40
2023-02-12T00:17:12.019Z,9.40
2023-02-12T00:19:38.761Z,9.40
2023-02-12T00:22:05.498Z,9.40
2023-02-12T00:24:32.780Z,9.30
2023-02-12T00:26:59.526Z,9.40
2023-02-12T00:29:26.274Z,9.40
2023-02-12T00:31:53.090Z,9.30
2023-02-12T00:34:19.851Z,9.30
2023-02-12T00:36:46.590Z,9.30
2023-02-12T00:39:13.274Z,9.30
2023-02-12T00:41:40.058Z,9.30
2023-02-12T00:44:06.769Z,9.30
2023-02-12T00:46:33.561Z,9.30
2023-02-12T00:49:00.366Z,9.30
2023-02-12T00:51:27.162Z,9.30
2023-02-12T00:53:53.966Z,9.30
2023-02-12T00:56:20.708Z,9.30
2023-02-12T00:58:47.425Z,9.30
2023-02-12T01:01:14.265Z,9.30
2023-02-12T01:03:41.003Z,9.30
2023-02-12T01:06:08.313Z,9.30
2023-02-12T01:08:35.573Z,9.30
2023-02-12T01:11:04.656Z,9.20
2023-02-12T01:13:32.423Z,9.20
2023-02-12T01:16:03.391Z,9.20
2023-02-12T01:18:30.112Z,9.20
2023-02-12T01:20:58.886Z,9.20
2023-02-12T01:23:25.981Z,9.20
2023-02-12T01:25:53.146Z,9.20
2023-02-12T01:28:20.124Z,9.20
2023-02-12T01:30:47.002Z,9.20
2023-02-12T01:33:13.743Z,9.20
2023-02-12T01:35:40.565Z,9.20
2023-02-12T01:38:07.350Z,9.20
2023-02-12T01:40:34.093Z,9.20
2023-02-12T01:43:02.949Z,9.20
2023-02-12T01:45:41.716Z,9.20
2023-02-12T01:48:08.444Z,9.20
2023-02-12T01:50:35.716Z,9.20
2023-02-12T01:53:02.781Z,9.20
2023-02-12T01:55:30.486Z,9.10
2023-02-12T01:57:57.199Z,9.10
2023-02-12T02:00:25.473Z,9.10
2023-02-12T02:02:56.838Z,9.10
2023-02-12T02:05:33.362Z,9.10
2023-02-12T02:08:00.210Z,9.10
2023-02-12T02:10:26.956Z,9.10
2023-02-12T02:13:12.269Z,9.10
2023-02-12T02:15:42.886Z,9.10
2023-02-12T02:18:20.586Z,9.10
2023-02-12T02:21:05.858Z,9.10
2023-02-12T02:23:55.148Z,9.10
2023-02-12T02:26:40.249Z,9.10
2023-02-12T02:29:25.760Z,9.10
2023-02-12T02:32:06.586Z,9.00
2023-02-12T02:35:09.371Z,9.00
2023-02-12T02:38:12.576Z,9.00
2023-02-12T02:40:55.448Z,9.00
2023-02-12T02:43:30.345Z,9.00
2023-02-12T02:46:07.307Z,9.00
2023-02-12T02:48:59.220Z,9.00
2023-02-12T02:51:33.353Z,9.00
2023-02-12T02:54:05.758Z,9.00
2023-02-12T02:56:36.927Z,9.00
2023-02-12T02:59:09.811Z,9.00
2023-02-12T03:01:42.638Z,9.00
2023-02-12T03:04:18.829Z,9.00
2023-02-12T03:07:06.411Z,9.00
2023-02-12T03:09:45.556Z,9.00
2023-02-12T03:12:35.754Z,9.00
2023-02-12T03:15:11.700Z,9.00
2023-02-12T03:17:43.278Z,8.90
2023-02-12T03:20:22.344Z,8.90
2023-02-12T03:22:53.806Z,8.90
2023-02-12T03:25:30.769Z,8.90
2023-02-12T03:28:07.556Z,8.90
2023-02-12T03:31:01.851Z,8.90
2023-02-12T03:33:34.546Z,8.90
2023-02-12T03:36:20.848Z,8.90
2023-02-12T03:38:53.765Z,8.90
2023-02-12T03:41:23.528Z,8.90
2023-02-12T03:43:55.159Z,8.90
2023-02-12T03:46:40.713Z,8.90
2023-02-12T03:49:35.164Z,8.90
2023-02-12T03:52:03.134Z,8.90
2023-02-12T03:54:30.091Z,8.90
2023-02-12T03:57:05.925Z,8.90
2023-02-12T03:59:35.065Z,8.90
2023-02-12T04:02:02.013Z,8.90
2023-02-12T04:04:29.189Z,8.90
2023-02-12T04:06:56.388Z,8.90
2023-02-12T04:09:26.145Z,8.90
2023-02-12T04:12:23.012Z,8.90
2023-02-12T04:15:25.635Z,8.90
2023-02-12T04:18:03.458Z,8.90
2023-02-12T04:20:48.011Z,8.80
2023-02-12T04:23:28.861Z,8.80
2023-02-12T04:26:20.420Z,8.80
2023-02-12T04:28:47.165Z,8.70
2023-02-12T04:31:30.415Z,8.70
2023-02-12T04:34:08.944Z,8.80
2023-02-12T04:36:51.690Z,8.70
2023-02-12T04:39:23.221Z,8.70
2023-02-12T04:41:50.619Z,8.80
2023-02-12T04:44:22.469Z,8.80
2023-02-12T04:46:49.772Z,8.80
2023-02-12T04:49:18.994Z,8.80
2023-02-12T04:51:46.409Z,8.80
2023-02-12T04:54:14.617Z,8.80
2023-02-12T04:56:41.756Z,8.80
2023-02-12T04:59:09.346Z,8.80
2023-02-12T05:01:38.140Z,8.80
2023-02-12T05:04:06.048Z,8.80
2023-02-12T05:06:35.886Z,8.80
2023-02-12T05:09:03.045Z,8.80
2023-02-12T05:11:29.781Z,8.80
2023-02-12T05:13:56.852Z,8.80
2023-02-12T05:16:24.286Z,8.80
2023-02-12T05:18:51.044Z,8.80
2023-02-12T05:21:17.847Z,8.80
2023-02-12T05:23:44.597Z,8.80
2023-02-12T05:26:14.533Z,8.80
2023-02-12T05:28:41.470Z,8.80
2023-02-12T05:31:10.767Z,8.80
2023-02-12T05:33:37.589Z,8.80
2023-02-12T05:36:10.717Z,8.80
2023-02-12T05:38:37.612Z,8.80
2023-02-12T05:41:06.068Z,8.80
2023-02-12T05:43:33.199Z,8.80
2023-02-12T05:46:04.648Z,8.80
2023-02-12T05:48:32.364Z,8.70
2023-02-12T05:51:16.111Z,8.70
2023-02-12T05:53:43.350Z,8.70
2023-02-12T05:56:14.093Z,8.70
2023-02-12T05:58:43.456Z,8.70
2023-02-12T06:01:22.930Z,8.70
2023-02-12T06:03:49.784Z,8.70
2023-02-12T06:06:16.616Z,8.70
2023-02-12T06:08:43.560Z,8.70
2023-02-12T06:11:14.271Z,8.70
2023-02-12T06:13:41.558Z,8.70
2023-02-12T06:16:16.324Z,8.70
2023-02-12T06:18:43.039Z,8.70
2023-02-12T06:21:09.727Z,8.70
2023-02-12T06:23:36.450Z,8.80
2023-02-12T06:26:03.236Z,8.70
2023-02-12T06:28:29.987Z,8.70
2023-02-12T06:30:56.837Z,8.70
2023-02-12T06:33:23.599Z,8.70
2023-02-12T06:35:50.383Z,8.70
2023-02-12T06:38:17.358Z,8.70
2023-02-12T06:40:44.405Z,8.70
2023-02-12T06:43:11.642Z,8.70
2023-02-12T06:45:38.591Z,8.70
2023-02-12T06:48:05.658Z,8.70
2023-02-12T06:50:33.054Z,8.70
2023-02-12T06:52:59.800Z,8.70
2023-02-12T06:55:26.542Z,8.70
2023-02-12T06:57:53.494Z,8.70
2023-02-12T07:00:20.864Z,8.70
2023-02-12T07:02:55.809Z,8.70
2023-02-12T07:05:23.397Z,8.70
2023-02-12T07:07:50.210Z,8.70
2023-02-12T07:10:17.822Z,8.70
2023-02-12T07:12:44.588Z,8.70
2023-02-12T07:15:11.667Z,8.70
2023-02-12T07:17:38.429Z,8.70
2023-02-12T07:20:06.122Z,8.70
2023-02-12T07:22:36.503Z,8.70
2023-02-12T07:25:03.225Z,8.70
2023-02-12T07:27:29.960Z,8.70
2023-02-12T07:29:56.675Z,8.70
2023-02-12T07:32:23.372Z,8.70
2023-02-12T07:34:50.068Z,8.70
2023-02-12T07:37:22.473Z,8.70
2023-02-12T07:39:49.864Z,8.70
2023-02-12T07:42:16.700Z,8.70
2023-02-12T07:44:43.743Z,8.70
2023-02-12T07:47:10.543Z,8.70
2023-02-12T07:49:37.289Z,8.70
2023-02-12T07:52:03.976Z,8.70
2023-02-12T07:54:30.665Z,8.70
2023-02-12T07:56:58.220Z,8.80
2023-02-12T07:59:24.969Z,8.80
2023-02-12T08:01:53.178Z,8.80
2023-02-12T08:04:22.304Z,8.80
2023-02-12T08:06:51.749Z,8.80
2023-02-12T08:09:24.258Z,8.80
2023-02-12T08:11:51.479Z,8.80
2023-02-12T08:14:20.487Z,8.90
2023-02-12T08:16:48.874Z,8.90
2023-02-12T08:19:20.946Z,8.90
2023-02-12T08:21:52.873Z,8.90
2023-02-12T08:24:19.655Z,8.90
2023-02-12T08:26:46.459Z,8.90
2023-02-12T08:29:16.009Z,8.90
2023-02-12T08:31:45.644Z,8.90
2023-02-12T08:34:20.850Z,8.90
2023-02-12T08:36:49.400Z,9.00
2023-02-12T08:39:17.727Z,9.00
2023-02-12T08:41:45.538Z,9.00
2023-02-12T08:44:13.061Z,9.00
2023-02-12T08:46:43.691Z,9.00
2023-02-12T08:49:16.311Z,9.00
2023-02-12T08:51:45.743Z,9.00
2023-02-12T08:54:15.560Z,9.00
2023-02-12T08:56:42.748Z,9.00
2023-02-12T08:59:10.643Z,9.10
2023-02-12T09:01:39.052Z,9.10
2023-02-12T09:04:06.531Z,9.10
2023-02-12T09:06:35.016Z,9.10
2023-02-12T09:09:02.243Z,9.20
2023-02-12T09:11:32.757Z,9.20
2023-02-12T09:14:02.273Z,9.20
2023-02-12T09:16:33.482Z,9.20
2023-02-12T09:19:00.299Z,9.20
2023-02-12T09:21:27.262Z,9.20
2023-02-12T09:23:54.493Z,9.30
2023-02-12T09:26:23.538Z,9.30
2023-02-12T09:28:51.180Z,9.30
2023-02-12T09:31:26.555Z,9.30
2023-02-12T09:33:55.649Z,9.40
2023-02-12T09:36:22.613Z,9.40
2023-02-12T09:38:49.824Z,9.40
2023-02-12T09:41:25.577Z,9.40
2023-02-12T09:44:11.537Z,9.40
2023-02-12T09:47:20.874Z,9.50
2023-02-12T09:50:13.636Z,9.50
2023-02-12T09:52:41.201Z,9.50
2023-02-12T09:55:14.725Z,9.50
2023-02-12T09:57:42.398Z,9.50
2023-02-12T10:00:18.240Z,9.50
2023-02-12T10:02:45.070Z,9.50
2023-02-12T10:05:28.962Z,9.50
2023-02-12T10:08:24.896Z,9.50
2023-02-12T10:10:53.568Z,9.60
2023-02-12T10:13:35.032Z,9.60
2023-02-12T10:16:17.937Z,9.60
2023-02-12T10:19:06.013Z,9.60
2023-02-12T10:22:11.805Z,9.70
2023-02-12T10:25:04.749Z,9.70
2023-02-12T10:27:46.697Z,9.70
2023-02-12T10:30:30.913Z,9.70
2023-02-12T10:33:20.859Z,9.70
2023-02-12T10:35:53.042Z,9.80
2023-02-12T10:38:24.207Z,9.80
2023-02-12T10:40:51.103Z,9.80
2023-02-12T10:43:18.164Z,9.80
2023-02-12T10:45:44.995Z,9.80
2023-02-12T10:48:17.445Z,9.80
2023-02-12T10:51:09.418Z,9.90
2023-02-12T10:53:41.791Z,9.90
2023-02-12T10:56:21.612Z,9.90
2023-02-12T10:58:55.018Z,9.90
2023-02-12T11:01:41.248Z,9.90
2023-02-12T11:04:23.315Z,9.90
2023-02-12T11:07:08.067Z,10.00
2023-02-12T11:09:45.235Z,10.00
2023-02-12T11:12:33.144Z,10.00
2023-02-12T11:15:04.235Z,10.00
2023-02-12T11:17:39.744Z,10.00
2023-02-12T11:20:18.673Z,10.10
2023-02-12T11:22:56.129Z,10.10
2023-02-12T11:25:25.560Z,10.10
2023-02-12T11:28:15.926Z,10.10
2023-02-12T11:30:53.518Z,10.10
2023-02-12T11:33:24.880Z,10.10
2023-02-12T11:36:06.882Z,10.10
2023-02-12T11:38:47.201Z,10.10
2023-02-12T11:41:23.745Z,10.10
2023-02-12T11:43:52.159Z,10.20
2023-02-12T11:46:22.866Z,10.20
2023-02-12T11:48:50.869Z,10.20
2023-02-12T11:51:29.443Z,10.20
2023-02-12T11:54:00.147Z,10.30
2023-02-12T11:56:44.527Z,10.20
2023-02-12T11:59:36.200Z,10.30
2023-02-12T12:02:12.045Z,10.30
2023-02-12T12:04:40.697Z,10.30
2023-02-12T12:07:17.402Z,10.30
2023-02-12T12:09:48.917Z,10.30
2023-02-12T12:12:38.980Z,10.30
2023-02-12T12:15:39.435Z,10.30
2023-02-12T12:18:30.056Z,10.30
2023-02-12T12:21:21.592Z,10.30
2023-02-12T12:23:58.613Z,10.30
2023-02-12T12:26:30.065Z,10.40
2023-02-12T12:29:15.206Z,10.30
2023-02-12T12:31:47.933Z,10.40
2023-02-12T12:34:23.858Z,10.40
2023-02-12T12:37:19.492Z,10.40
2023-02-12T12:40:15.190Z,10.50
2023-02-12T12:43:09.756Z,10.40
2023-02-12T12:45:54.891Z,10.40
2023-02-12T12:48:43.432Z,10.50
2023-02-12T12:51:28.417Z,10.50
2023-02-12T12:54:24.557Z,10.50
2023-02-12T12:57:16.913Z,10.40
2023-02-12T12:59:49.516Z,10.40
2023-02-12T13:02:38.301Z,10.40
2023-02-12T13:05:23.241Z,10.50
2023-02-12T13:08:04.530Z,10.50
2023-02-12T13:10:55.495Z,10.50
2023-02-12T13:13:38.422Z,10.50
2023-02-12T13:16:21.465Z,10.50
2023-02-12T13:19:11.104Z,10.50
2023-02-12T13:21:51.241Z,10.50
2023-02-12T13:24:30.807Z,10.50
2023-02-12T13:27:00.601Z,10.50
2023-02-12T13:29:42.367Z,10.50
2023-02-12T13:32:37.744Z,10.60
2023-02-12T13:35:07.362Z,10.60
2023-02-12T13:37:45.736Z,10.60
2023-02-12T13:40:19.222Z,10.60
2023-02-12T13:43:01.063Z,10.60
2023-02-12T13:45:33.768Z,10.60
2023-02-12T13:48:20.316Z,10.60
2023-02-12T13:51:01.345Z,10.60
2023-02-12T13:54:00.222Z,10.60
2023-02-12T13:56:37.717Z,10.50
2023-02-12T13:59:04.562Z,10.50
2023-02-12T14:01:36.307Z,10.50
2023-02-12T14:04:21.948Z,10.50
2023-02-12T14:07:01.309Z,10.50
2023-02-12T14:09:37.883Z,10.40
2023-02-12T14:12:11.505Z,10.50
2023-02-12T14:14:42.949Z,10.40
2023-02-12T14:17:28.335Z,10.40
2023-02-12T14:20:40.181Z,10.40
2023-02-12T14:23:24.338Z,10.40
2023-02-12T14:25:59.135Z,10.40
2023-02-12T14:28:26.093Z,10.40
2023-02-12T14:31:35.379Z,10.40
2023-02-12T14:34:04.964Z,10.40
2023-02-12T14:36:32.185Z,10.40
2023-02-12T14:39:06.044Z,10.40
2023-02-12T14:41:42.759Z,10.40
2023-02-12T14:44:20.425Z,10.40
2023-02-12T14:46:54.337Z,10.40
2023-02-12T14:49:39.911Z,10.40
2023-02-12T14:52:26.577Z,10.40
2023-02-12T14:54:56.906Z,10.50
2023-02-12T14:57:44.927Z,10.40
2023-02-12T15:00:17.489Z,10.40
2023-02-12T15:02:53.298Z,10.40
2023-02-12T15:05:27.885Z,10.40
2023-02-12T15:08:05.405Z,10.40
2023-02-12T15:10:38.064Z,10.40
2023-02-12T15:13:22.840Z,10.40
2023-02-12T15:15:55.612Z,10.30
2023-02-12T15:18:43.123Z,10.30
2023-02-12T15:21:31.544Z,10.30
2023-02-12T15:24:11.480Z,10.30
2023-02-12T15:26:46.782Z,10.30
2023-02-12T15:29:21.663Z,10.30
2023-02-12T15:32:02.893Z,10.30
2023-02-12T15:34:32.927Z,10.30
2023-02-12T15:37:03.606Z,10.30
2023-02-12T15:39:44.852Z,10.30
2023-02-12T15:42:53.096Z,10.20
2023-02-12T15:45:23.610Z,10.20
2023-02-12T15:48:04.976Z,10.20
2023-02-12T15:50:32.793Z,10.20
2023-02-12T15:53:00.058Z,10.20
2023-02-12T15:55:30.502Z,10.20
2023-02-12T15:58:00.752Z,10.20
2023-02-12T16:00:39.480Z,10.20
2023-02-12T16:03:06.188Z,10.20
2023-02-12T16:05:35.171Z,10.20
2023-02-12T16:08:02.456Z,10.20
2023-02-12T16:10:29.281Z,10.20
2023-02-12T16:12:56.225Z,10.20
2023-02-12T16:15:32.479Z,10.20
2023-02-12T16:18:03.930Z,10.20
2023-02-12T16:20:31.624Z,10.10
2023-02-12T16:22:59.656Z,10.10
2023-02-12T16:25:30.473Z,10.10
2023-02-12T16:28:01.898Z,10.10
2023-02-12T16:30:33.891Z,10.10
2023-02-12T16:33:01.782Z,10.10
2023-02-12T16:35:34.713Z,10.10
2023-02-12T16:38:21.490Z,10.10
2023-02-12T16:41:15.465Z,10.10
2023-02-12T16:43:42.304Z,10.00
2023-02-12T16:46:09.637Z,10.10
2023-02-12T16:48:49.081Z,10.00
2023-02-12T16:51:28.065Z,10.00
2023-02-12T16:54:00.596Z,10.00
2023-02-12T16:56:34.614Z,10.00
2023-02-12T16:59:02.028Z,10.00
2023-02-12T17:01:32.597Z,10.00
2023-02-12T17:04:02.153Z,10.00
2023-02-12T17:06:31.624Z,10.00
2023-02-12T17:08:59.086Z,10.00
2023-02-12T17:11:27.622Z,10.00
2023-02-12T17:13:55.797Z,10.00
2023-02-12T17:16:31.831Z,10.00
2023-02-12T17:19:00.588Z,10.00
2023-02-12T17:21:39.522Z,10.00
2023-02-12T17:24:17.954Z,10.00
2023-02-12T17:26:44.725Z,9.90
2023-02-12T17:29:11.482Z,9.90
2023-02-12T17:31:38.918Z,9.90
2023-02-12T17:34:06.236Z,9.90
2023-02-12T17:36:33.386Z,9.90
2023-02-12T17:39:02.502Z,9.90
2023-02-12T17:41:29.415Z,9.80
2023-02-12T17:43:56.197Z,9.80
2023-02-12T17:46:26.357Z,9.80
2023-02-12T17:48:53.312Z,9.80
2023-02-12T17:51:20.619Z,9.80
2023-02-12T17:53:48.598Z,9.80
2023-02-12T17:56:22.113Z,9.80
2023-02-12T17:58:49.683Z,9.80
2023-02-12T18:01:20.208Z,9.70
2023-02-12T18:03:47.031Z,9.70
2023-02-12T18:06:16.250Z,9.70
2023-02-12T18:08:43.308Z,9.70
2023-02-12T18:11:11.547Z,9.70
2023-02-12T18:13:39.309Z,9.70
2023-02-12T18:16:07.674Z,9.70
2023-02-12T18:18:34.670Z,9.70
2023-02-12T18:21:01.565Z,9.70
2023-02-12T18:23:28.299Z,9.70
2023-02-12T18:25:55.045Z,9.70
2023-02-12T18:28:21.836Z,9.70
2023-02-12T18:30:56.614Z,9.70
2023-02-12T18:33:24.327Z,9.70
2023-02-12T18:36:02.491Z,9.60
2023-02-12T18:38:29.709Z,9.60
2023-02-12T18:40:57.034Z,9.60
2023-02-12T18:43:24.840Z,9.60
2023-02-12T18:45:51.781Z,9.60
2023-02-12T18:48:18.787Z,9.60
2023-02-12T18:50:45.551Z,9.60
2023-02-12T18:53:12.284Z,9.60
2023-02-12T18:55:39.953Z,9.50
2023-02-12T18:58:06.853Z,9.50
2023-02-12T19:00:33.669Z,9.50
2023-02-12T19:03:00.493Z,9.50
2023-02-12T19:05:27.279Z,9.50
2023-02-12T19:07:54.534Z,9.50
2023-02-12T19:10:22.114Z,9.50
2023-02-12T19:12:49.075Z,9.50
2023-02-12T19:15:16.619Z,9.50
2023-02-12T19:17:43.427Z,9.50
2023-02-12T19:20:11.091Z,9.50
2023-02-12T19:22:38.471Z,9.50
2023-02-12T19:25:05.609Z,9.50
2023-02-12T19:27:32.719Z,9.50
2023-02-12T19:30:02.819Z,9.40
2023-02-12T19:32:29.561Z,9.50
2023-02-12T19:34:56.320Z,9.50
2023-02-12T19:37:23.243Z,9.50
2023-02-12T19:39:49.930Z,9.40
2023-02-12T19:42:17.606Z,9.40
2023-02-12T19:44:46.780Z,9.40
2023-02-12T19:47:13.654Z,9.40
2023-02-12T19:49:41.310Z,9.40
2023-02-12T19:52:08.333Z,9.40
2023-02-12T19:54:35.721Z,9.40
2023-02-12T19:57:03.785Z,9.40
2023-02-12T19:59:30.520Z,9.40
2023-02-12T20:01:57.228Z,9.40
2023-02-12T20:04:24.834Z,9.40
2023-02-12T20:06:52.369Z,9.40
2023-02-12T20:09:20.685Z,9.40
2023-02-12T20:11:47.383Z,9.40
2023-02-12T20:14:15.065Z,9.40
2023-02-12T20:16:44.625Z,9.40
2023-02-12T20:19:21.616Z,9.40
2023-02-12T20:21:54.095Z,9.40
2023-02-12T20:24:29.597Z,9.40
2023-02-12T20:26:57.929Z,9.40
2023-02-12T20:29:24.747Z,9.30
2023-02-12T20:31:51.615Z,9.30
2023-02-12T20:34:19.932Z,9.30
2023-02-12T20:36:47.356Z,9.30
2023-02-12T20:39:18.115Z,9.30
2023-02-12T20:41:45.118Z,9.30
2023-02-12T20:44:15.913Z,9.30
2023-02-12T20:46:45.616Z,9.30
2023-02-12T20:49:13.988Z,9.30
2023-02-12T20:51:40.957Z,9.30
2023-02-12T20:54:08.069Z,9.30
2023-02-12T20:56:36.086Z,9.30
2023-02-12T20:59:04.636Z,9.30
2023-02-12T21:01:42.049Z,9.30
2023-02-12T21:04:11.976Z,9.30
2023-02-12T21:06:40.358Z,9.30
2023-02-12T21:09:12.563Z,9.30
2023-02-12T21:11:40.989Z,9.30
2023-02-12T21:14:25.067Z,9.30
2023-02-12T21:16:54.311Z,9.30
2023-02-12T21:19:21.644Z,9.30
2023-02-12T21:21:48.441Z,9.20
2023-02-12T21:24:18.318Z,9.20
2023-02-12T21:26:45.228Z,9.20
2023-02-12T21:29:11.975Z,9.20
2023-02-12T21:31:41.546Z,9.30
2023-02-12T21:34:11.160Z,9.30
2023-02-12T21:36:39.954Z,9.20
2023-02-12T21:39:09.038Z,9.30
2023-02-12T21:41:38.119Z,9.20
2023-02-12T21:44:17.230Z,9.20
2023-02-12T21:46:44.541Z,9.20
2023-02-12T21:49:13.633Z,9.20
2023-02-12T21:51:42.768Z,9.20
2023-02-12T21:54:12.025Z,9.20
2023-02-12T21:56:41.294Z,9.20
2023-02-12T21:59:08.921Z,9.20
2023-02-12T22:01:38.941Z,9.20
2023-02-12T22:04:06.933Z,9.20
2023-02-12T22:06:37.544Z,9.20
2023-02-12T22:09:07.860Z,9.20
2023-02-12T22:11:35.987Z,9.20
2023-02-12T22:14:04.436Z,9.20
2023-02-12T22:16:31.755Z,9.20
2023-02-12T22:19:01.761Z,9.20
2023-02-12T22:21:30.968Z,9.20
2023-02-12T22:24:00.484Z,9.20
2023-02-12T22:26:28.875Z,9.20
2023-02-12T22:29:03.945Z,9.20
2023-02-12T22:31:33.363Z,9.20
2023-02-12T22:34:04.433Z,9.20
2023-02-12T22:36:33.664Z,9.20
2023-02-12T22:39:00.915Z,9.20
2023-02-12T22:41:28.756Z,9.20
2023-02-12T22:43:58.713Z,9.20
2023-02-12T22:46:25.809Z,9.20
2023-02-12T22:48:52.535Z,9.20
2023-02-12T22:51:26.711Z,9.20
2023-02-12T22:53:54.335Z,9.20
2023-02-12T22:56:21.310Z,9.20
2023-02-12T22:58:48.272Z,9.20
2023-02-12T23:01:17.694Z,9.20
2023-02-12T23:03:45.708Z,9.20
2023-02-12T23:06:16.522Z,9.20
2023-02-12T23:08:43.963Z,9.20
2023-02-12T23:11:11.899Z,9.20
2023-02-12T23:13:38.994Z,9.20
2023-02-12T23:16:05.801Z,9.20
2023-02-12T23:18:32.688Z,9.20
2023-02-12T23:20:59.842Z,9.20
2023-02-12T23:23:26.882Z,9.20
2023-02-12T23:25:54.625Z,9.20
2023-02-12T23:28:22.426Z,9.20
2023-02-12T23:30:50.660Z,9.20
2023-02-12T23:33:18.115Z,9.20
2023-02-12T23:35:45.934Z,9.20
2023-02-12T23:38:13.134Z,9.20
2023-02-12T23:40:40.694Z,9.20
2023-02-12T23:43:07.495Z,9.20
2023-02-12T23:45:34.250Z,9.20
2023-02-12T23:48:00.924Z,9.20
2023-02-12T23:50:27.639Z,9.20
2023-02-12T23:52:54.357Z,9.20
2023-02-12T23:55:21.438Z,9.20
2023-02-12T23:57:49.726Z,9.20
